sensor_id;sensor_type;location;lat;lon;timestamp;P1;durP1;ratioP1;P2;durP2;ratioP2
13349;SDS011;6744;53.190;6.576;2024-03-08T00:01:05;22.63;;;19.07;;
13349;SDS011;6744;53.190;6.576;2024-03-08T00:03:32;22.50;;;18.67;;
13349;SDS011;6744;53.190;6.576;2024-03-08T00:05:58;25.90;;;20.10;;
13349;SDS011;6744;53.190;6.576;2024-03-08T00:08:23;23.10;;;20.03;;
13349;SDS011;6744;53.190;6.576;2024-03-08T00:10:49;26.47;;;21.03;;
13349;SDS011;6744;53.190;6.576;2024-03-08T00:13:14;27.27;;;21.63;;
13349;SDS011;6744;53.190;6.576;2024-03-08T00:15:40;23.37;;;19.13;;
13349;SDS011;6744;53.190;6.576;2024-03-08T00:18:06;27.33;;;21.30;;
13349;SDS011;6744;53.190;6.576;2024-03-08T00:20:31;26.63;;;21.87;;
13349;SDS011;6744;53.190;6.576;2024-03-08T00:22:57;27.73;;;22.60;;
13349;SDS011;6744;53.190;6.576;2024-03-08T00:25:23;28.33;;;21.97;;
13349;SDS011;6744;53.190;6.576;2024-03-08T00:27:48;26.93;;;22.63;;
13349;SDS011;6744;53.190;6.576;2024-03-08T00:30:21;27.40;;;21.73;;
13349;SDS011;6744;53.190;6.576;2024-03-08T00:32:48;27.27;;;21.83;;
13349;SDS011;6744;53.190;6.576;2024-03-08T00:35:14;27.13;;;21.80;;
13349;SDS011;6744;53.190;6.576;2024-03-08T00:37:40;28.53;;;22.87;;
13349;SDS011;6744;53.190;6.576;2024-03-08T00:40:07;28.63;;;21.90;;
13349;SDS011;6744;53.190;6.576;2024-03-08T00:42:34;26.53;;;21.83;;
13349;SDS011;6744;53.190;6.576;2024-03-08T00:45:00;26.63;;;22.23;;
13349;SDS011;6744;53.190;6.576;2024-03-08T00:47:26;26.53;;;21.50;;
13349;SDS011;6744;53.190;6.576;2024-03-08T00:49:52;26.90;;;20.47;;
13349;SDS011;6744;53.190;6.576;2024-03-08T00:52:18;25.70;;;21.13;;
13349;SDS011;6744;53.190;6.576;2024-03-08T00:54:44;27.63;;;21.57;;
13349;SDS011;6744;53.190;6.576;2024-03-08T00:57:10;28.70;;;22.97;;
13349;SDS011;6744;53.190;6.576;2024-03-08T00:59:37;25.23;;;19.83;;
13349;SDS011;6744;53.190;6.576;2024-03-08T01:02:03;27.50;;;21.57;;
13349;SDS011;6744;53.190;6.576;2024-03-08T01:04:28;26.20;;;20.17;;
13349;SDS011;6744;53.190;6.576;2024-03-08T01:06:54;27.93;;;21.93;;
13349;SDS011;6744;53.190;6.576;2024-03-08T01:09:22;29.37;;;22.17;;
13349;SDS011;6744;53.190;6.576;2024-03-08T01:11:48;30.13;;;22.63;;
13349;SDS011;6744;53.190;6.576;2024-03-08T01:14:13;26.37;;;21.80;;
13349;SDS011;6744;53.190;6.576;2024-03-08T01:16:38;31.50;;;22.70;;
13349;SDS011;6744;53.190;6.576;2024-03-08T01:19:04;26.40;;;21.67;;
13349;SDS011;6744;53.190;6.576;2024-03-08T01:21:29;28.43;;;22.50;;
13349;SDS011;6744;53.190;6.576;2024-03-08T01:23:55;27.07;;;21.90;;
13349;SDS011;6744;53.190;6.576;2024-03-08T01:26:20;25.87;;;20.50;;
13349;SDS011;6744;53.190;6.576;2024-03-08T01:28:45;27.07;;;22.63;;
13349;SDS011;6744;53.190;6.576;2024-03-08T01:31:11;24.77;;;20.20;;
13349;SDS011;6744;53.190;6.576;2024-03-08T01:33:37;26.10;;;20.83;;
13349;SDS011;6744;53.190;6.576;2024-03-08T01:36:02;24.77;;;20.47;;
13349;SDS011;6744;53.190;6.576;2024-03-08T01:38:28;26.13;;;21.57;;
13349;SDS011;6744;53.190;6.576;2024-03-08T01:40:53;28.40;;;22.93;;
13349;SDS011;6744;53.190;6.576;2024-03-08T01:45:50;27.80;;;20.93;;
13349;SDS011;6744;53.190;6.576;2024-03-08T01:48:16;28.90;;;22.47;;
13349;SDS011;6744;53.190;6.576;2024-03-08T01:50:42;30.43;;;22.83;;
13349;SDS011;6744;53.190;6.576;2024-03-08T01:53:08;28.00;;;21.07;;
13349;SDS011;6744;53.190;6.576;2024-03-08T01:55:35;25.90;;;21.17;;
13349;SDS011;6744;53.190;6.576;2024-03-08T01:58:01;31.47;;;22.70;;
13349;SDS011;6744;53.190;6.576;2024-03-08T02:00:28;28.73;;;21.53;;
13349;SDS011;6744;53.190;6.576;2024-03-08T02:02:55;27.90;;;22.17;;
13349;SDS011;6744;53.190;6.576;2024-03-08T02:05:21;26.53;;;21.17;;
13349;SDS011;6744;53.190;6.576;2024-03-08T02:07:46;26.67;;;22.33;;
13349;SDS011;6744;53.190;6.576;2024-03-08T02:10:12;25.90;;;22.07;;
13349;SDS011;6744;53.190;6.576;2024-03-08T02:12:38;31.57;;;24.03;;
13349;SDS011;6744;53.190;6.576;2024-03-08T02:15:04;28.97;;;22.23;;
13349;SDS011;6744;53.190;6.576;2024-03-08T02:17:31;31.53;;;24.07;;
13349;SDS011;6744;53.190;6.576;2024-03-08T02:19:58;28.77;;;22.43;;
13349;SDS011;6744;53.190;6.576;2024-03-08T02:22:30;25.93;;;20.87;;
13349;SDS011;6744;53.190;6.576;2024-03-08T02:24:58;25.17;;;20.73;;
13349;SDS011;6744;53.190;6.576;2024-03-08T02:27:26;28.90;;;21.53;;
13349;SDS011;6744;53.190;6.576;2024-03-08T02:29:54;25.73;;;20.50;;
13349;SDS011;6744;53.190;6.576;2024-03-08T02:32:23;24.77;;;20.30;;
13349;SDS011;6744;53.190;6.576;2024-03-08T02:34:49;26.80;;;20.30;;
13349;SDS011;6744;53.190;6.576;2024-03-08T02:37:17;24.87;;;20.70;;
13349;SDS011;6744;53.190;6.576;2024-03-08T02:39:43;25.60;;;19.37;;
13349;SDS011;6744;53.190;6.576;2024-03-08T02:42:08;23.93;;;20.13;;
13349;SDS011;6744;53.190;6.576;2024-03-08T02:44:34;28.70;;;21.20;;
13349;SDS011;6744;53.190;6.576;2024-03-08T02:46:59;25.67;;;19.63;;
13349;SDS011;6744;53.190;6.576;2024-03-08T02:49:25;24.70;;;19.30;;
13349;SDS011;6744;53.190;6.576;2024-03-08T02:51:54;29.30;;;20.93;;
13349;SDS011;6744;53.190;6.576;2024-03-08T02:54:22;25.87;;;20.57;;
13349;SDS011;6744;53.190;6.576;2024-03-08T02:56:49;25.67;;;20.37;;
13349;SDS011;6744;53.190;6.576;2024-03-08T02:59:16;27.53;;;21.40;;
13349;SDS011;6744;53.190;6.576;2024-03-08T03:01:42;26.47;;;19.67;;
13349;SDS011;6744;53.190;6.576;2024-03-08T03:04:08;25.43;;;19.67;;
13349;SDS011;6744;53.190;6.576;2024-03-08T03:06:33;22.63;;;18.17;;
13349;SDS011;6744;53.190;6.576;2024-03-08T03:08:59;25.03;;;19.40;;
13349;SDS011;6744;53.190;6.576;2024-03-08T03:11:24;24.10;;;18.57;;
13349;SDS011;6744;53.190;6.576;2024-03-08T03:13:49;27.70;;;20.00;;
13349;SDS011;6744;53.190;6.576;2024-03-08T03:16:18;23.70;;;18.87;;
13349;SDS011;6744;53.190;6.576;2024-03-08T03:18:48;25.07;;;18.97;;
13349;SDS011;6744;53.190;6.576;2024-03-08T03:21:14;23.20;;;18.87;;
13349;SDS011;6744;53.190;6.576;2024-03-08T03:23:40;24.07;;;19.70;;
13349;SDS011;6744;53.190;6.576;2024-03-08T03:26:06;23.20;;;18.47;;
13349;SDS011;6744;53.190;6.576;2024-03-08T03:28:37;21.47;;;17.50;;
13349;SDS011;6744;53.190;6.576;2024-03-08T03:31:07;25.40;;;19.43;;
13349;SDS011;6744;53.190;6.576;2024-03-08T03:33:32;21.70;;;18.07;;
13349;SDS011;6744;53.190;6.576;2024-03-08T03:36:02;23.60;;;18.57;;
13349;SDS011;6744;53.190;6.576;2024-03-08T03:38:30;25.37;;;18.67;;
13349;SDS011;6744;53.190;6.576;2024-03-08T03:40:55;23.33;;;18.13;;
13349;SDS011;6744;53.190;6.576;2024-03-08T03:43:25;21.90;;;18.50;;
13349;SDS011;6744;53.190;6.576;2024-03-08T03:45:51;25.93;;;19.43;;
13349;SDS011;6744;53.190;6.576;2024-03-08T03:48:16;20.97;;;16.20;;
13349;SDS011;6744;53.190;6.576;2024-03-08T03:50:41;24.47;;;19.00;;
13349;SDS011;6744;53.190;6.576;2024-03-08T03:53:07;22.50;;;18.47;;
13349;SDS011;6744;53.190;6.576;2024-03-08T03:55:33;23.73;;;17.80;;
13349;SDS011;6744;53.190;6.576;2024-03-08T03:57:59;22.93;;;16.80;;
13349;SDS011;6744;53.190;6.576;2024-03-08T04:00:26;23.73;;;17.87;;
13349;SDS011;6744;53.190;6.576;2024-03-08T04:02:52;21.60;;;17.20;;
13349;SDS011;6744;53.190;6.576;2024-03-08T04:05:17;23.13;;;18.77;;
13349;SDS011;6744;53.190;6.576;2024-03-08T04:07:43;25.93;;;18.77;;
13349;SDS011;6744;53.190;6.576;2024-03-08T04:10:09;23.23;;;17.77;;
13349;SDS011;6744;53.190;6.576;2024-03-08T04:12:36;23.93;;;18.17;;
13349;SDS011;6744;53.190;6.576;2024-03-08T04:15:02;23.83;;;17.80;;
13349;SDS011;6744;53.190;6.576;2024-03-08T04:17:27;23.33;;;19.00;;
13349;SDS011;6744;53.190;6.576;2024-03-08T04:19:53;22.47;;;18.57;;
13349;SDS011;6744;53.190;6.576;2024-03-08T04:22:19;22.63;;;18.40;;
13349;SDS011;6744;53.190;6.576;2024-03-08T04:24:45;22.50;;;16.97;;
13349;SDS011;6744;53.190;6.576;2024-03-08T04:27:11;22.10;;;16.70;;
13349;SDS011;6744;53.190;6.576;2024-03-08T04:29:36;20.70;;;16.57;;
13349;SDS011;6744;53.190;6.576;2024-03-08T04:32:05;19.67;;;16.30;;
13349;SDS011;6744;53.190;6.576;2024-03-08T04:34:32;23.83;;;18.43;;
13349;SDS011;6744;53.190;6.576;2024-03-08T04:36:57;20.07;;;16.93;;
13349;SDS011;6744;53.190;6.576;2024-03-08T04:39:23;25.50;;;18.30;;
13349;SDS011;6744;53.190;6.576;2024-03-08T04:41:49;22.07;;;16.90;;
13349;SDS011;6744;53.190;6.576;2024-03-08T04:44:14;22.10;;;17.67;;
13349;SDS011;6744;53.190;6.576;2024-03-08T04:46:40;21.40;;;17.20;;
13349;SDS011;6744;53.190;6.576;2024-03-08T04:49:06;21.63;;;18.10;;
13349;SDS011;6744;53.190;6.576;2024-03-08T04:51:32;21.30;;;17.67;;
13349;SDS011;6744;53.190;6.576;2024-03-08T04:53:58;23.33;;;18.87;;
13349;SDS011;6744;53.190;6.576;2024-03-08T04:56:24;22.93;;;17.00;;
13349;SDS011;6744;53.190;6.576;2024-03-08T04:58:50;21.87;;;17.97;;
13349;SDS011;6744;53.190;6.576;2024-03-08T05:01:16;21.27;;;17.00;;
13349;SDS011;6744;53.190;6.576;2024-03-08T05:03:41;21.70;;;16.90;;
13349;SDS011;6744;53.190;6.576;2024-03-08T05:06:07;22.47;;;17.30;;
13349;SDS011;6744;53.190;6.576;2024-03-08T05:08:33;19.70;;;15.97;;
13349;SDS011;6744;53.190;6.576;2024-03-08T05:10:59;21.93;;;16.90;;
13349;SDS011;6744;53.190;6.576;2024-03-08T05:13:29;19.90;;;15.67;;
13349;SDS011;6744;53.190;6.576;2024-03-08T05:15:55;24.27;;;17.63;;
13349;SDS011;6744;53.190;6.576;2024-03-08T05:18:23;22.67;;;17.77;;
13349;SDS011;6744;53.190;6.576;2024-03-08T05:20:49;19.20;;;15.87;;
13349;SDS011;6744;53.190;6.576;2024-03-08T05:23:15;19.47;;;15.40;;
13349;SDS011;6744;53.190;6.576;2024-03-08T05:25:40;20.83;;;17.20;;
13349;SDS011;6744;53.190;6.576;2024-03-08T05:28:06;20.40;;;16.93;;
13349;SDS011;6744;53.190;6.576;2024-03-08T05:30:32;20.90;;;16.67;;
13349;SDS011;6744;53.190;6.576;2024-03-08T05:32:57;19.37;;;15.40;;
13349;SDS011;6744;53.190;6.576;2024-03-08T05:35:22;22.50;;;16.77;;
13349;SDS011;6744;53.190;6.576;2024-03-08T05:37:49;19.67;;;15.43;;
13349;SDS011;6744;53.190;6.576;2024-03-08T05:40:15;21.20;;;16.57;;
13349;SDS011;6744;53.190;6.576;2024-03-08T05:42:40;20.57;;;16.47;;
13349;SDS011;6744;53.190;6.576;2024-03-08T05:45:06;21.13;;;16.93;;
13349;SDS011;6744;53.190;6.576;2024-03-08T05:47:31;21.40;;;16.30;;
13349;SDS011;6744;53.190;6.576;2024-03-08T05:49:58;22.83;;;17.10;;
13349;SDS011;6744;53.190;6.576;2024-03-08T05:52:24;19.97;;;16.07;;
13349;SDS011;6744;53.190;6.576;2024-03-08T05:54:51;18.97;;;15.17;;
13349;SDS011;6744;53.190;6.576;2024-03-08T05:57:16;23.30;;;17.40;;
13349;SDS011;6744;53.190;6.576;2024-03-08T05:59:42;19.40;;;15.47;;
13349;SDS011;6744;53.190;6.576;2024-03-08T06:02:07;19.63;;;16.07;;
13349;SDS011;6744;53.190;6.576;2024-03-08T06:04:33;23.00;;;16.57;;
13349;SDS011;6744;53.190;6.576;2024-03-08T06:06:58;21.87;;;16.23;;
13349;SDS011;6744;53.190;6.576;2024-03-08T06:09:24;19.07;;;15.53;;
13349;SDS011;6744;53.190;6.576;2024-03-08T06:11:50;20.77;;;16.53;;
13349;SDS011;6744;53.190;6.576;2024-03-08T06:14:19;18.60;;;15.07;;
13349;SDS011;6744;53.190;6.576;2024-03-08T06:16:45;18.37;;;16.17;;
13349;SDS011;6744;53.190;6.576;2024-03-08T06:19:10;20.47;;;15.37;;
13349;SDS011;6744;53.190;6.576;2024-03-08T06:21:37;18.57;;;14.80;;
13349;SDS011;6744;53.190;6.576;2024-03-08T06:24:02;18.03;;;14.97;;
13349;SDS011;6744;53.190;6.576;2024-03-08T06:26:28;20.23;;;14.93;;
13349;SDS011;6744;53.190;6.576;2024-03-08T06:28:54;19.50;;;15.47;;
13349;SDS011;6744;53.190;6.576;2024-03-08T06:31:19;20.00;;;15.00;;
13349;SDS011;6744;53.190;6.576;2024-03-08T06:33:45;21.50;;;16.60;;
13349;SDS011;6744;53.190;6.576;2024-03-08T06:36:10;19.33;;;15.20;;
13349;SDS011;6744;53.190;6.576;2024-03-08T06:38:37;19.90;;;14.60;;
13349;SDS011;6744;53.190;6.576;2024-03-08T06:41:08;22.63;;;16.47;;
13349;SDS011;6744;53.190;6.576;2024-03-08T06:43:34;19.13;;;15.80;;
13349;SDS011;6744;53.190;6.576;2024-03-08T06:45:59;17.37;;;14.50;;
13349;SDS011;6744;53.190;6.576;2024-03-08T06:48:25;20.60;;;15.40;;
13349;SDS011;6744;53.190;6.576;2024-03-08T06:50:50;23.13;;;16.83;;
13349;SDS011;6744;53.190;6.576;2024-03-08T06:53:16;19.50;;;15.43;;
13349;SDS011;6744;53.190;6.576;2024-03-08T06:55:44;19.47;;;15.37;;
13349;SDS011;6744;53.190;6.576;2024-03-08T06:58:09;20.83;;;15.60;;
13349;SDS011;6744;53.190;6.576;2024-03-08T07:00:36;21.93;;;16.83;;
13349;SDS011;6744;53.190;6.576;2024-03-08T07:03:02;20.70;;;15.33;;
13349;SDS011;6744;53.190;6.576;2024-03-08T07:05:28;20.17;;;14.73;;
13349;SDS011;6744;53.190;6.576;2024-03-08T07:07:57;19.43;;;15.53;;
13349;SDS011;6744;53.190;6.576;2024-03-08T07:10:23;17.10;;;14.60;;
13349;SDS011;6744;53.190;6.576;2024-03-08T07:12:52;19.63;;;14.73;;
13349;SDS011;6744;53.190;6.576;2024-03-08T07:15:20;17.63;;;14.57;;
13349;SDS011;6744;53.190;6.576;2024-03-08T07:17:46;21.33;;;16.57;;
13349;SDS011;6744;53.190;6.576;2024-03-08T07:20:12;19.63;;;15.23;;
13349;SDS011;6744;53.190;6.576;2024-03-08T07:22:39;21.47;;;15.63;;
13349;SDS011;6744;53.190;6.576;2024-03-08T07:25:05;19.53;;;14.27;;
13349;SDS011;6744;53.190;6.576;2024-03-08T07:27:49;19.90;;;15.43;;
13349;SDS011;6744;53.190;6.576;2024-03-08T07:30:16;16.80;;;14.37;;
13349;SDS011;6744;53.190;6.576;2024-03-08T07:33:20;17.57;;;14.30;;
13349;SDS011;6744;53.190;6.576;2024-03-08T07:35:47;18.03;;;15.27;;
13349;SDS011;6744;53.190;6.576;2024-03-08T07:38:14;17.23;;;14.27;;
13349;SDS011;6744;53.190;6.576;2024-03-08T07:40:41;18.10;;;15.00;;
13349;SDS011;6744;53.190;6.576;2024-03-08T07:43:09;18.47;;;15.07;;
13349;SDS011;6744;53.190;6.576;2024-03-08T07:45:39;17.60;;;14.37;;
13349;SDS011;6744;53.190;6.576;2024-03-08T07:48:04;19.33;;;15.17;;
13349;SDS011;6744;53.190;6.576;2024-03-08T07:50:36;19.27;;;15.37;;
13349;SDS011;6744;53.190;6.576;2024-03-08T07:53:02;18.27;;;15.20;;
13349;SDS011;6744;53.190;6.576;2024-03-08T07:55:28;18.03;;;15.17;;
13349;SDS011;6744;53.190;6.576;2024-03-08T07:57:56;17.90;;;14.37;;
13349;SDS011;6744;53.190;6.576;2024-03-08T08:00:21;19.80;;;15.43;;
13349;SDS011;6744;53.190;6.576;2024-03-08T08:02:47;19.87;;;15.13;;
13349;SDS011;6744;53.190;6.576;2024-03-08T08:05:14;18.33;;;14.60;;
13349;SDS011;6744;53.190;6.576;2024-03-08T08:07:40;17.50;;;15.00;;
13349;SDS011;6744;53.190;6.576;2024-03-08T08:10:08;18.77;;;15.47;;
13349;SDS011;6744;53.190;6.576;2024-03-08T08:12:40;17.77;;;15.67;;
13349;SDS011;6744;53.190;6.576;2024-03-08T08:15:07;22.03;;;15.00;;
13349;SDS011;6744;53.190;6.576;2024-03-08T08:17:32;16.57;;;14.80;;
13349;SDS011;6744;53.190;6.576;2024-03-08T08:19:59;16.73;;;14.73;;
13349;SDS011;6744;53.190;6.576;2024-03-08T08:22:25;18.30;;;15.63;;
13349;SDS011;6744;53.190;6.576;2024-03-08T08:24:50;19.03;;;15.23;;
13349;SDS011;6744;53.190;6.576;2024-03-08T08:27:17;16.80;;;14.83;;
13349;SDS011;6744;53.190;6.576;2024-03-08T08:29:42;17.53;;;15.00;;
13349;SDS011;6744;53.190;6.576;2024-03-08T08:32:08;18.80;;;15.37;;
13349;SDS011;6744;53.190;6.576;2024-03-08T08:34:34;17.93;;;15.33;;
13349;SDS011;6744;53.190;6.576;2024-03-08T08:36:59;15.93;;;14.17;;
13349;SDS011;6744;53.190;6.576;2024-03-08T08:39:25;16.57;;;14.70;;
13349;SDS011;6744;53.190;6.576;2024-03-08T08:41:51;17.67;;;14.33;;
13349;SDS011;6744;53.190;6.576;2024-03-08T08:44:17;17.23;;;14.47;;
13349;SDS011;6744;53.190;6.576;2024-03-08T08:46:42;18.37;;;16.00;;
13349;SDS011;6744;53.190;6.576;2024-03-08T08:49:07;17.00;;;14.80;;
13349;SDS011;6744;53.190;6.576;2024-03-08T08:51:36;16.53;;;14.50;;
13349;SDS011;6744;53.190;6.576;2024-03-08T08:54:01;15.80;;;14.10;;
13349;SDS011;6744;53.190;6.576;2024-03-08T08:56:27;18.00;;;14.83;;
13349;SDS011;6744;53.190;6.576;2024-03-08T08:58:53;16.30;;;14.60;;
13349;SDS011;6744;53.190;6.576;2024-03-08T09:01:19;16.57;;;14.20;;
13349;SDS011;6744;53.190;6.576;2024-03-08T09:03:45;17.20;;;15.03;;
13349;SDS011;6744;53.190;6.576;2024-03-08T09:06:15;16.17;;;14.47;;
13349;SDS011;6744;53.190;6.576;2024-03-08T09:08:41;15.43;;;13.70;;
13349;SDS011;6744;53.190;6.576;2024-03-08T09:11:07;17.27;;;14.57;;
13349;SDS011;6744;53.190;6.576;2024-03-08T09:13:32;15.40;;;13.80;;
13349;SDS011;6744;53.190;6.576;2024-03-08T09:15:59;16.40;;;14.40;;
13349;SDS011;6744;53.190;6.576;2024-03-08T09:18:25;15.83;;;14.13;;
13349;SDS011;6744;53.190;6.576;2024-03-08T09:20:50;15.90;;;14.17;;
13349;SDS011;6744;53.190;6.576;2024-03-08T09:23:16;14.83;;;13.33;;
13349;SDS011;6744;53.190;6.576;2024-03-08T09:25:44;15.20;;;13.43;;
13349;SDS011;6744;53.190;6.576;2024-03-08T09:28:10;15.80;;;14.13;;
13349;SDS011;6744;53.190;6.576;2024-03-08T09:30:37;16.10;;;14.43;;
13349;SDS011;6744;53.190;6.576;2024-03-08T09:33:03;17.20;;;15.20;;
13349;SDS011;6744;53.190;6.576;2024-03-08T09:35:29;16.17;;;14.57;;
13349;SDS011;6744;53.190;6.576;2024-03-08T09:37:55;17.60;;;15.27;;
13349;SDS011;6744;53.190;6.576;2024-03-08T09:40:21;18.87;;;15.80;;
13349;SDS011;6744;53.190;6.576;2024-03-08T09:42:48;16.53;;;14.83;;
13349;SDS011;6744;53.190;6.576;2024-03-08T09:45:14;16.47;;;14.77;;
13349;SDS011;6744;53.190;6.576;2024-03-08T09:47:41;19.23;;;15.03;;
13349;SDS011;6744;53.190;6.576;2024-03-08T09:50:07;15.83;;;14.27;;
13349;SDS011;6744;53.190;6.576;2024-03-08T09:52:37;17.70;;;15.50;;
13349;SDS011;6744;53.190;6.576;2024-03-08T09:55:04;16.40;;;14.80;;
13349;SDS011;6744;53.190;6.576;2024-03-08T09:57:31;17.90;;;15.03;;
13349;SDS011;6744;53.190;6.576;2024-03-08T09:59:57;17.27;;;15.47;;
13349;SDS011;6744;53.190;6.576;2024-03-08T10:02:22;16.50;;;14.80;;
13349;SDS011;6744;53.190;6.576;2024-03-08T10:04:48;16.27;;;14.67;;
13349;SDS011;6744;53.190;6.576;2024-03-08T10:07:13;17.23;;;15.60;;
13349;SDS011;6744;53.190;6.576;2024-03-08T10:09:39;16.60;;;14.90;;
13349;SDS011;6744;53.190;6.576;2024-03-08T10:12:05;16.70;;;15.00;;
13349;SDS011;6744;53.190;6.576;2024-03-08T10:14:30;16.73;;;14.93;;
13349;SDS011;6744;53.190;6.576;2024-03-08T10:16:57;17.07;;;15.37;;
13349;SDS011;6744;53.190;6.576;2024-03-08T10:19:25;16.80;;;15.00;;
13349;SDS011;6744;53.190;6.576;2024-03-08T10:21:51;18.77;;;15.60;;
13349;SDS011;6744;53.190;6.576;2024-03-08T10:24:18;16.83;;;15.07;;
13349;SDS011;6744;53.190;6.576;2024-03-08T10:26:44;16.70;;;14.90;;
13349;SDS011;6744;53.190;6.576;2024-03-08T10:29:10;17.13;;;15.33;;
13349;SDS011;6744;53.190;6.576;2024-03-08T10:31:40;16.57;;;14.87;;
13349;SDS011;6744;53.190;6.576;2024-03-08T10:34:08;16.13;;;14.37;;
13349;SDS011;6744;53.190;6.576;2024-03-08T10:36:34;17.60;;;15.80;;
13349;SDS011;6744;53.190;6.576;2024-03-08T10:39:03;16.63;;;14.93;;
13349;SDS011;6744;53.190;6.576;2024-03-08T10:41:33;17.20;;;15.53;;
13349;SDS011;6744;53.190;6.576;2024-03-08T10:47:19;16.40;;;14.80;;
13349;SDS011;6744;53.190;6.576;2024-03-08T10:49:54;16.23;;;14.63;;
13349;SDS011;6744;53.190;6.576;2024-03-08T10:52:20;17.17;;;15.33;;
13349;SDS011;6744;53.190;6.576;2024-03-08T10:54:47;16.70;;;15.10;;
13349;SDS011;6744;53.190;6.576;2024-03-08T10:57:13;17.47;;;15.60;;
13349;SDS011;6744;53.190;6.576;2024-03-08T10:59:40;16.40;;;14.70;;
13349;SDS011;6744;53.190;6.576;2024-03-08T11:02:08;17.03;;;15.33;;
13349;SDS011;6744;53.190;6.576;2024-03-08T11:04:36;17.33;;;15.60;;
13349;SDS011;6744;53.190;6.576;2024-03-08T11:07:02;17.57;;;15.77;;
13349;SDS011;6744;53.190;6.576;2024-03-08T11:09:32;16.87;;;15.27;;
13349;SDS011;6744;53.190;6.576;2024-03-08T11:14:55;16.93;;;15.30;;
13349;SDS011;6744;53.190;6.576;2024-03-08T11:17:44;16.40;;;14.43;;
13349;SDS011;6744;53.190;6.576;2024-03-08T11:20:14;16.80;;;15.10;;
13349;SDS011;6744;53.190;6.576;2024-03-08T11:22:51;17.47;;;15.57;;
13349;SDS011;6744;53.190;6.576;2024-03-08T11:25:39;16.83;;;15.13;;
13349;SDS011;6744;53.190;6.576;2024-03-08T11:30:41;17.67;;;15.87;;
13349;SDS011;6744;53.190;6.576;2024-03-08T11:33:12;17.57;;;15.77;;
13349;SDS011;6744;53.190;6.576;2024-03-08T11:35:38;17.27;;;15.60;;
13349;SDS011;6744;53.190;6.576;2024-03-08T11:38:04;18.03;;;16.33;;
13349;SDS011;6744;53.190;6.576;2024-03-08T11:40:29;17.53;;;15.73;;
13349;SDS011;6744;53.190;6.576;2024-03-08T11:42:58;17.70;;;15.80;;
13349;SDS011;6744;53.190;6.576;2024-03-08T11:45:24;18.47;;;16.57;;
13349;SDS011;6744;53.190;6.576;2024-03-08T11:47:50;17.27;;;15.60;;
13349;SDS011;6744;53.190;6.576;2024-03-08T11:50:15;17.07;;;15.37;;
13349;SDS011;6744;53.190;6.576;2024-03-08T11:52:41;17.30;;;15.60;;
13349;SDS011;6744;53.190;6.576;2024-03-08T11:55:08;18.70;;;16.90;;
13349;SDS011;6744;53.190;6.576;2024-03-08T11:57:34;17.13;;;15.43;;
13349;SDS011;6744;53.190;6.576;2024-03-08T11:59:59;18.30;;;15.40;;
13349;SDS011;6744;53.190;6.576;2024-03-08T12:02:34;18.37;;;16.40;;
13349;SDS011;6744;53.190;6.576;2024-03-08T12:05:07;19.23;;;17.30;;
13349;SDS011;6744;53.190;6.576;2024-03-08T12:07:35;18.37;;;16.57;;
13349;SDS011;6744;53.190;6.576;2024-03-08T12:10:20;19.40;;;17.40;;
13349;SDS011;6744;53.190;6.576;2024-03-08T12:12:47;17.87;;;16.07;;
13349;SDS011;6744;53.190;6.576;2024-03-08T12:15:17;18.00;;;16.20;;
13349;SDS011;6744;53.190;6.576;2024-03-08T12:17:48;17.77;;;15.97;;
13349;SDS011;6744;53.190;6.576;2024-03-08T12:20:19;17.97;;;16.10;;
13349;SDS011;6744;53.190;6.576;2024-03-08T12:22:48;16.93;;;15.23;;
13349;SDS011;6744;53.190;6.576;2024-03-08T12:25:15;19.30;;;16.60;;
13349;SDS011;6744;53.190;6.576;2024-03-08T12:27:41;17.43;;;15.73;;
13349;SDS011;6744;53.190;6.576;2024-03-08T12:30:19;17.30;;;15.50;;
13349;SDS011;6744;53.190;6.576;2024-03-08T12:32:50;17.43;;;15.83;;
13349;SDS011;6744;53.190;6.576;2024-03-08T12:35:19;17.57;;;15.83;;
13349;SDS011;6744;53.190;6.576;2024-03-08T12:37:48;16.27;;;14.77;;
13349;SDS011;6744;53.190;6.576;2024-03-08T12:40:16;16.87;;;15.27;;
13349;SDS011;6744;53.190;6.576;2024-03-08T12:42:45;16.93;;;15.27;;
13349;SDS011;6744;53.190;6.576;2024-03-08T12:45:14;17.00;;;15.40;;
13349;SDS011;6744;53.190;6.576;2024-03-08T12:47:39;17.57;;;15.87;;
13349;SDS011;6744;53.190;6.576;2024-03-08T12:50:07;16.30;;;14.80;;
13349;SDS011;6744;53.190;6.576;2024-03-08T12:52:34;15.87;;;14.30;;
13349;SDS011;6744;53.190;6.576;2024-03-08T12:55:00;18.47;;;14.20;;
13349;SDS011;6744;53.190;6.576;2024-03-08T12:57:32;17.30;;;15.60;;
13349;SDS011;6744;53.190;6.576;2024-03-08T12:59:59;18.23;;;16.43;;
13349;SDS011;6744;53.190;6.576;2024-03-08T13:02:25;17.27;;;15.47;;
13349;SDS011;6744;53.190;6.576;2024-03-08T13:04:51;17.03;;;15.27;;
13349;SDS011;6744;53.190;6.576;2024-03-08T13:07:22;15.63;;;14.03;;
13349;SDS011;6744;53.190;6.576;2024-03-08T13:09:51;17.80;;;16.07;;
13349;SDS011;6744;53.190;6.576;2024-03-08T13:12:23;16.60;;;15.00;;
13349;SDS011;6744;53.190;6.576;2024-03-08T13:14:49;16.80;;;15.20;;
13349;SDS011;6744;53.190;6.576;2024-03-08T13:17:14;15.43;;;13.93;;
13349;SDS011;6744;53.190;6.576;2024-03-08T13:19:40;16.97;;;15.37;;
13349;SDS011;6744;53.190;6.576;2024-03-08T13:22:07;16.33;;;14.80;;
13349;SDS011;6744;53.190;6.576;2024-03-08T13:24:32;15.30;;;13.80;;
13349;SDS011;6744;53.190;6.576;2024-03-08T13:27:01;15.50;;;14.00;;
13349;SDS011;6744;53.190;6.576;2024-03-08T13:29:26;16.10;;;14.50;;
13349;SDS011;6744;53.190;6.576;2024-03-08T13:31:53;15.50;;;13.90;;
13349;SDS011;6744;53.190;6.576;2024-03-08T13:34:20;15.70;;;14.27;;
13349;SDS011;6744;53.190;6.576;2024-03-08T13:36:53;15.60;;;14.07;;
13349;SDS011;6744;53.190;6.576;2024-03-08T13:39:23;15.20;;;13.70;;
13349;SDS011;6744;53.190;6.576;2024-03-08T13:41:50;15.23;;;13.83;;
13349;SDS011;6744;53.190;6.576;2024-03-08T13:44:16;15.50;;;14.00;;
13349;SDS011;6744;53.190;6.576;2024-03-08T13:46:42;14.23;;;12.83;;
13349;SDS011;6744;53.190;6.576;2024-03-08T13:49:07;14.37;;;12.97;;
13349;SDS011;6744;53.190;6.576;2024-03-08T13:51:35;14.17;;;12.87;;
13349;SDS011;6744;53.190;6.576;2024-03-08T13:54:00;14.97;;;13.53;;
13349;SDS011;6744;53.190;6.576;2024-03-08T13:56:29;14.73;;;13.23;;
13349;SDS011;6744;53.190;6.576;2024-03-08T13:58:56;14.87;;;13.47;;
13349;SDS011;6744;53.190;6.576;2024-03-08T14:01:22;14.77;;;13.37;;
13349;SDS011;6744;53.190;6.576;2024-03-08T14:03:48;14.97;;;13.53;;
13349;SDS011;6744;53.190;6.576;2024-03-08T14:06:13;14.23;;;12.83;;
13349;SDS011;6744;53.190;6.576;2024-03-08T14:08:38;13.97;;;12.40;;
13349;SDS011;6744;53.190;6.576;2024-03-08T14:11:04;14.33;;;12.93;;
13349;SDS011;6744;53.190;6.576;2024-03-08T14:13:45;14.57;;;13.27;;
13349;SDS011;6744;53.190;6.576;2024-03-08T14:16:13;14.03;;;12.67;;
13349;SDS011;6744;53.190;6.576;2024-03-08T14:18:40;14.10;;;12.70;;
13349;SDS011;6744;53.190;6.576;2024-03-08T14:21:05;14.30;;;12.87;;
13349;SDS011;6744;53.190;6.576;2024-03-08T14:23:33;14.10;;;12.80;;
13349;SDS011;6744;53.190;6.576;2024-03-08T14:25:58;14.83;;;13.30;;
13349;SDS011;6744;53.190;6.576;2024-03-08T14:28:24;14.73;;;13.33;;
13349;SDS011;6744;53.190;6.576;2024-03-08T14:30:52;13.93;;;12.63;;
13349;SDS011;6744;53.190;6.576;2024-03-08T14:33:18;14.23;;;12.93;;
13349;SDS011;6744;53.190;6.576;2024-03-08T14:35:44;13.87;;;12.57;;
13349;SDS011;6744;53.190;6.576;2024-03-08T14:38:11;14.27;;;12.77;;
13349;SDS011;6744;53.190;6.576;2024-03-08T14:40:38;13.83;;;12.40;;
13349;SDS011;6744;53.190;6.576;2024-03-08T14:43:04;13.10;;;11.80;;